Mary K Cavarra — WDB9000 — position and weather

sailwx.info

Track history (hours):
 
Tides and Currents Weather Stations Pressure Air Temp Water Temp Dewpoint Dewpoint Depression Visibility Wind Speed Wind Dir Waves Ship Positions

Mary K Cavarra

Owner: INGRAM BARGE COMPANY, Nashville, TN. More information available from US FCC via Universal Licensing System and Coast Guard Vessel Documentation Center.

Last reported at 2017-Apr-28 23:23 UTC. Time now 2017-Apr-30 14:55 UTC.
Position N 41°00' W 090°57'.

Length 52 m; draft 2.7 m.

Type: Towing. MMSI: 366967650.

Date/timePositionNaut miles runAvg speedWind from/ knotsBaromVisibWave heightAir tempDewpointWater temp
2017-Apr-28 23:23N 41°00' W 090°57'2 4.2
2017-Apr-28 23:00N 40°59' W 090°58'2 3.8
2017-Apr-28 22:30N 40°57' W 090°57'2 3.8
2017-Apr-28 22:00N 40°55' W 090°58'2 3.8
2017-Apr-28 21:30N 40°54' W 091°00'2 3.3
2017-Apr-28 21:01N 40°53' W 091°01'0 0.3
2017-Apr-28 20:30N 40°53' W 091°02'0 0.0
2017-Apr-28 20:00N 40°53' W 091°02'1 2.2
2017-Apr-28 19:30N 40°52' W 091°03'0 0.3
2017-Apr-28 19:00N 40°52' W 091°03'0 0.0
2017-Apr-28 18:30N 40°52' W 091°03'0 0.0
2017-Apr-28 18:00N 40°52' W 091°03'2 3.5
2017-Apr-28 17:30N 40°51' W 091°04'2 4.3
2017-Apr-28 17:00N 40°49' W 091°06'2 3.9
2017-Apr-28 16:29N 40°47' W 091°06'117 2.5
2017-Apr-26 16:53N 38°52' W 090°33'2 5.6
2017-Apr-26 16:30N 38°54' W 090°31'3 5.6
2017-Apr-26 16:00N 38°56' W 090°29'2 4.9
2017-Apr-26 15:31N 38°58' W 090°26'2 4.4
2017-Apr-26 15:00N 38°58' W 090°23'3 5.9
2017-Apr-26 14:31N 38°56' W 090°20'5 4.8
2017-Apr-26 13:28N 38°55' W 090°14'1 2.5
2017-Apr-26 13:00N 38°54' W 090°13'3 0.1
2017-Apr-25 08:30N 38°52' W 090°09'3 5.0
2017-Apr-25 07:59N 38°54' W 090°12'2 4.6
2017-Apr-25 07:30N 38°55' W 090°14'0 0.0
2017-Apr-25 07:00N 38°55' W 090°14'0 0.0
2017-Apr-25 06:30N 38°55' W 090°14'0 0.0
2017-Apr-25 06:01N 38°55' W 090°14'1 2.1
2017-Apr-25 05:31N 38°55' W 090°16'3 5.7
2017-Apr-25 05:01N 38°56' W 090°19'3 5.2
2017-Apr-25 04:30N 38°57' W 090°22'3 6.4
2017-Apr-25 04:01N 38°58' W 090°26'3 6.5
2017-Apr-25 03:30N 38°56' W 090°30'4 6.9
2017-Apr-25 02:52N 38°52' W 090°33'  
Track history (hours):
 
Tides and Currents Weather Stations Pressure Air Temp Water Temp Dewpoint Dewpoint Depression Visibility Wind Speed Wind Dir Waves Ship Positions

Mary K Cavarra

Owner: INGRAM BARGE COMPANY, Nashville, TN. More information available from US FCC via Universal Licensing System and Coast Guard Vessel Documentation Center.

Last reported at 2017-Apr-28 23:23 UTC. Time now 2017-Apr-30 14:55 UTC.
Position N 41°00' W 090°57'.

Length 52 m; draft 2.7 m.

Type: Towing. MMSI: 366967650.

Date/timePositionNaut miles runAvg speedWind from/ knotsBaromVisibWave heightAir tempDewpointWater temp
2017-Apr-28 23:23N 41°00' W 090°57'2 4.2
2017-Apr-28 23:00N 40°59' W 090°58'2 3.8
2017-Apr-28 22:30N 40°57' W 090°57'2 3.8
2017-Apr-28 22:00N 40°55' W 090°58'2 3.8
2017-Apr-28 21:30N 40°54' W 091°00'2 3.3
2017-Apr-28 21:01N 40°53' W 091°01'0 0.3
2017-Apr-28 20:30N 40°53' W 091°02'0 0.0
2017-Apr-28 20:00N 40°53' W 091°02'1 2.2
2017-Apr-28 19:30N 40°52' W 091°03'0 0.3
2017-Apr-28 19:00N 40°52' W 091°03'0 0.0
2017-Apr-28 18:30N 40°52' W 091°03'0 0.0
2017-Apr-28 18:00N 40°52' W 091°03'2 3.5
2017-Apr-28 17:30N 40°51' W 091°04'2 4.3
2017-Apr-28 17:00N 40°49' W 091°06'2 3.9
2017-Apr-28 16:29N 40°47' W 091°06'117 2.5
2017-Apr-26 16:53N 38°52' W 090°33'2 5.6
2017-Apr-26 16:30N 38°54' W 090°31'3 5.6
2017-Apr-26 16:00N 38°56' W 090°29'2 4.9
2017-Apr-26 15:31N 38°58' W 090°26'2 4.4
2017-Apr-26 15:00N 38°58' W 090°23'3 5.9
2017-Apr-26 14:31N 38°56' W 090°20'5 4.8
2017-Apr-26 13:28N 38°55' W 090°14'1 2.5
2017-Apr-26 13:00N 38°54' W 090°13'3 0.1
2017-Apr-25 08:30N 38°52' W 090°09'3 5.0
2017-Apr-25 07:59N 38°54' W 090°12'2 4.6
2017-Apr-25 07:30N 38°55' W 090°14'0 0.0
2017-Apr-25 07:00N 38°55' W 090°14'0 0.0
2017-Apr-25 06:30N 38°55' W 090°14'0 0.0
2017-Apr-25 06:01N 38°55' W 090°14'1 2.1
2017-Apr-25 05:31N 38°55' W 090°16'3 5.7
2017-Apr-25 05:01N 38°56' W 090°19'3 5.2
2017-Apr-25 04:30N 38°57' W 090°22'3 6.4
2017-Apr-25 04:01N 38°58' W 090°26'3 6.5
2017-Apr-25 03:30N 38°56' W 090°30'4 6.9
2017-Apr-25 02:52N 38°52' W 090°33'  

Dump ship's entire track history